sensor_id;sensor_type;location;lat;lon;timestamp;pressure;altitude;pressure_sealevel;temperature;humidity
19845;BME280;10083;51.038;7.012;2022-08-01T00:00:17;99931.28;;;22.54;100.00
19845;BME280;10083;51.038;7.012;2022-08-01T00:02:44;99927.88;;;22.41;100.00
19845;BME280;10083;51.038;7.012;2022-08-01T00:05:14;99837.72;;;22.22;100.00
19845;BME280;10083;51.038;7.012;2022-08-01T00:07:42;99867.13;;;22.18;100.00
19845;BME280;10083;51.038;7.012;2022-08-01T00:10:17;99882.94;;;22.03;100.00
19845;BME280;10083;51.038;7.012;2022-08-01T00:12:46;99982.97;;;22.03;100.00
19845;BME280;10083;51.038;7.012;2022-08-01T00:15:21;100043.25;;;22.00;100.00
19845;BME280;10083;51.038;7.012;2022-08-01T00:17:48;100133.06;;;21.90;100.00
19845;BME280;10083;51.038;7.012;2022-08-01T00:20:39;100229.69;;;21.99;100.00
19845;BME280;10083;51.038;7.012;2022-08-01T00:23:06;100262.09;;;21.91;100.00
19845;BME280;10083;51.038;7.012;2022-08-01T00:25:35;100330.06;;;21.94;100.00
19845;BME280;10083;51.038;7.012;2022-08-01T00:28:02;100379.31;;;22.03;100.00
19845;BME280;10083;51.038;7.012;2022-08-01T00:30:40;100419.25;;;22.04;100.00
19845;BME280;10083;51.038;7.012;2022-08-01T00:33:07;100455.88;;;22.13;100.00
19845;BME280;10083;51.038;7.012;2022-08-01T00:35:40;100522.22;;;22.14;100.00
19845;BME280;10083;51.038;7.012;2022-08-01T00:38:07;100553.31;;;22.11;100.00
19845;BME280;10083;51.038;7.012;2022-08-01T00:40:34;100571.25;;;22.02;100.00
19845;BME280;10083;51.038;7.012;2022-08-01T00:47:06;100678.63;;;22.01;100.00
19845;BME280;10083;51.038;7.012;2022-08-01T00:49:33;100742.56;;;22.10;100.00
19845;BME280;10083;51.038;7.012;2022-08-01T00:52:03;100710.16;;;22.05;100.00
19845;BME280;10083;51.038;7.012;2022-08-01T00:54:32;100665.19;;;21.98;100.00
19845;BME280;10083;51.038;7.012;2022-08-01T00:56:59;100634.44;;;21.96;100.00
19845;BME280;10083;51.038;7.012;2022-08-01T00:59:49;100605.28;;;22.09;100.00
19845;BME280;10083;51.038;7.012;2022-08-01T01:02:48;100528.81;;;21.98;100.00
19845;BME280;10083;51.038;7.012;2022-08-01T01:05:15;100457.78;;;22.00;100.00
19845;BME280;10083;51.038;7.012;2022-08-01T01:08:08;100413.66;;;22.06;100.00
19845;BME280;10083;51.038;7.012;2022-08-01T01:10:42;100379.78;;;21.97;100.00
19845;BME280;10083;51.038;7.012;2022-08-01T01:13:18;100383.03;;;22.02;100.00
19845;BME280;10083;51.038;7.012;2022-08-01T01:16:06;100376.09;;;21.98;100.00
19845;BME280;10083;51.038;7.012;2022-08-01T01:18:55;100389.84;;;21.97;100.00
19845;BME280;10083;51.038;7.012;2022-08-01T01:22:08;100387.75;;;22.00;100.00
19845;BME280;10083;51.038;7.012;2022-08-01T01:24:44;100403.63;;;21.83;100.00
19845;BME280;10083;51.038;7.012;2022-08-01T01:27:29;100371.88;;;21.82;100.00
19845;BME280;10083;51.038;7.012;2022-08-01T01:30:25;100377.59;;;21.79;100.00
19845;BME280;10083;51.038;7.012;2022-08-01T01:32:59;100382.63;;;21.72;100.00
19845;BME280;10083;51.038;7.012;2022-08-01T01:35:32;100425.31;;;21.84;100.00
19845;BME280;10083;51.038;7.012;2022-08-01T01:38:04;100402.16;;;21.90;100.00
19845;BME280;10083;51.038;7.012;2022-08-01T01:40:38;100373.97;;;21.78;100.00
19845;BME280;10083;51.038;7.012;2022-08-01T01:43:08;100415.63;;;21.80;100.00
19845;BME280;10083;51.038;7.012;2022-08-01T01:45:53;100411.22;;;21.90;100.00
19845;BME280;10083;51.038;7.012;2022-08-01T01:48:21;100360.97;;;21.82;100.00
19845;BME280;10083;51.038;7.012;2022-08-01T01:50:59;100356.66;;;21.79;100.00
19845;BME280;10083;51.038;7.012;2022-08-01T01:53:28;100376.59;;;21.80;100.00
19845;BME280;10083;51.038;7.012;2022-08-01T01:56:03;100363.19;;;21.77;100.00
19845;BME280;10083;51.038;7.012;2022-08-01T01:58:32;100414.25;;;21.75;100.00
19845;BME280;10083;51.038;7.012;2022-08-01T02:01:20;100393.97;;;21.90;100.00
19845;BME280;10083;51.038;7.012;2022-08-01T02:03:49;100354.31;;;21.86;100.00
19845;BME280;10083;51.038;7.012;2022-08-01T02:06:33;100332.56;;;21.73;100.00
19845;BME280;10083;51.038;7.012;2022-08-01T02:09:01;100341.03;;;21.81;100.00
19845;BME280;10083;51.038;7.012;2022-08-01T02:11:39;100312.72;;;21.71;100.00
19845;BME280;10083;51.038;7.012;2022-08-01T02:14:07;100377.75;;;21.64;100.00
19845;BME280;10083;51.038;7.012;2022-08-01T02:16:39;100404.94;;;21.77;100.00
19845;BME280;10083;51.038;7.012;2022-08-01T02:19:24;100336.06;;;21.75;100.00
19845;BME280;10083;51.038;7.012;2022-08-01T02:21:55;100384.78;;;21.80;100.00
19845;BME280;10083;51.038;7.012;2022-08-01T02:27:42;100342.34;;;21.76;100.00
19845;BME280;10083;51.038;7.012;2022-08-01T02:30:13;100279.81;;;21.85;100.00
19845;BME280;10083;51.038;7.012;2022-08-01T02:32:45;100263.25;;;21.64;100.00
19845;BME280;10083;51.038;7.012;2022-08-01T02:35:19;100330.44;;;21.65;100.00
19845;BME280;10083;51.038;7.012;2022-08-01T02:37:48;100347.66;;;21.66;100.00
19845;BME280;10083;51.038;7.012;2022-08-01T02:40:24;100301.03;;;21.58;100.00
19845;BME280;10083;51.038;7.012;2022-08-01T02:42:54;100324.84;;;21.67;100.00
19845;BME280;10083;51.038;7.012;2022-08-01T02:45:58;100311.22;;;21.67;100.00
19845;BME280;10083;51.038;7.012;2022-08-01T02:48:30;100224.66;;;21.82;100.00
19845;BME280;10083;51.038;7.012;2022-08-01T02:51:01;100157.50;;;21.92;100.00
19845;BME280;10083;51.038;7.012;2022-08-01T02:53:32;100130.22;;;21.92;100.00
19845;BME280;10083;51.038;7.012;2022-08-01T02:56:03;100098.97;;;21.85;100.00
19845;BME280;10083;51.038;7.012;2022-08-01T02:58:36;100130.81;;;21.73;100.00
19845;BME280;10083;51.038;7.012;2022-08-01T03:01:04;100210.88;;;21.72;100.00
19845;BME280;10083;51.038;7.012;2022-08-01T03:03:36;100199.97;;;21.72;100.00
19845;BME280;10083;51.038;7.012;2022-08-01T03:09:27;100281.47;;;21.64;100.00
19845;BME280;10083;51.038;7.012;2022-08-01T03:12:00;100287.34;;;21.71;100.00
19845;BME280;10083;51.038;7.012;2022-08-01T03:14:32;100311.97;;;21.69;100.00
19845;BME280;10083;51.038;7.012;2022-08-01T03:17:08;100296.88;;;21.76;100.00
19845;BME280;10083;51.038;7.012;2022-08-01T03:19:38;100268.38;;;21.80;100.00
19845;BME280;10083;51.038;7.012;2022-08-01T03:22:09;100240.91;;;21.83;100.00
19845;BME280;10083;51.038;7.012;2022-08-01T03:24:40;100241.25;;;21.79;100.00
19845;BME280;10083;51.038;7.012;2022-08-01T03:27:08;100237.91;;;21.75;100.00
19845;BME280;10083;51.038;7.012;2022-08-01T03:30:10;100258.34;;;21.81;100.00
19845;BME280;10083;51.038;7.012;2022-08-01T03:32:38;100262.66;;;21.72;100.00
19845;BME280;10083;51.038;7.012;2022-08-01T03:35:07;100340.81;;;21.60;100.00
19845;BME280;10083;51.038;7.012;2022-08-01T03:37:38;100369.81;;;21.61;100.00
19845;BME280;10083;51.038;7.012;2022-08-01T03:40:31;100374.56;;;21.71;100.00
19845;BME280;10083;51.038;7.012;2022-08-01T03:43:05;100323.16;;;21.77;100.00
19845;BME280;10083;51.038;7.012;2022-08-01T03:46:26;100291.78;;;21.72;100.00
19845;BME280;10083;51.038;7.012;2022-08-01T03:48:55;100286.97;;;21.75;100.00
19845;BME280;10083;51.038;7.012;2022-08-01T03:51:27;100286.09;;;21.75;100.00
19845;BME280;10083;51.038;7.012;2022-08-01T03:54:20;100277.00;;;21.63;100.00
19845;BME280;10083;51.038;7.012;2022-08-01T03:56:48;100296.00;;;21.76;100.00
19845;BME280;10083;51.038;7.012;2022-08-01T03:59:26;100243.38;;;21.75;100.00
19845;BME280;10083;51.038;7.012;2022-08-01T04:01:54;100296.16;;;21.50;100.00
19845;BME280;10083;51.038;7.012;2022-08-01T04:04:40;100354.81;;;21.67;100.00
19845;BME280;10083;51.038;7.012;2022-08-01T04:07:39;100312.84;;;21.70;100.00
19845;BME280;10083;51.038;7.012;2022-08-01T04:10:08;100306.81;;;21.77;100.00
19845;BME280;10083;51.038;7.012;2022-08-01T04:15:48;100306.78;;;21.66;100.00
19845;BME280;10083;51.038;7.012;2022-08-01T04:18:14;100299.38;;;21.79;100.00
19845;BME280;10083;51.038;7.012;2022-08-01T04:21:20;100250.44;;;21.89;100.00
19845;BME280;10083;51.038;7.012;2022-08-01T04:23:54;100199.84;;;21.74;100.00
19845;BME280;10083;51.038;7.012;2022-08-01T04:26:25;100239.16;;;21.82;100.00
19845;BME280;10083;51.038;7.012;2022-08-01T04:28:55;100283.31;;;21.87;100.00
19845;BME280;10083;51.038;7.012;2022-08-01T04:31:43;100299.03;;;21.84;100.00
19845;BME280;10083;51.038;7.012;2022-08-01T04:34:17;100299.66;;;21.87;100.00
19845;BME280;10083;51.038;7.012;2022-08-01T04:37:11;100297.34;;;21.94;100.00
19845;BME280;10083;51.038;7.012;2022-08-01T04:39:41;100272.69;;;21.95;100.00
19845;BME280;10083;51.038;7.012;2022-08-01T04:42:18;100243.19;;;22.00;100.00
19845;BME280;10083;51.038;7.012;2022-08-01T04:44:57;100196.31;;;22.06;100.00
19845;BME280;10083;51.038;7.012;2022-08-01T04:47:25;100179.84;;;22.08;100.00
19845;BME280;10083;51.038;7.012;2022-08-01T04:50:10;100151.94;;;21.93;100.00
19845;BME280;10083;51.038;7.012;2022-08-01T04:52:41;100200.16;;;21.93;100.00
19845;BME280;10083;51.038;7.012;2022-08-01T04:55:17;100212.41;;;21.87;100.00
19845;BME280;10083;51.038;7.012;2022-08-01T04:57:46;100235.72;;;21.91;100.00
19845;BME280;10083;51.038;7.012;2022-08-01T05:00:14;100219.38;;;22.02;100.00
19845;BME280;10083;51.038;7.012;2022-08-01T05:02:45;100231.03;;;21.93;100.00
19845;BME280;10083;51.038;7.012;2022-08-01T05:05:27;100285.19;;;21.98;100.00
19845;BME280;10083;51.038;7.012;2022-08-01T05:07:56;100266.97;;;21.98;100.00
19845;BME280;10083;51.038;7.012;2022-08-01T05:10:24;100248.41;;;22.03;100.00
19845;BME280;10083;51.038;7.012;2022-08-01T05:13:23;100179.22;;;22.04;100.00
19845;BME280;10083;51.038;7.012;2022-08-01T05:15:51;100133.47;;;22.08;100.00
19845;BME280;10083;51.038;7.012;2022-08-01T05:18:42;100085.97;;;22.10;100.00
19845;BME280;10083;51.038;7.012;2022-08-01T05:21:09;100097.50;;;21.92;100.00
19845;BME280;10083;51.038;7.012;2022-08-01T05:23:37;100140.66;;;21.98;100.00
19845;BME280;10083;51.038;7.012;2022-08-01T05:26:05;100132.84;;;21.93;100.00
19845;BME280;10083;51.038;7.012;2022-08-01T05:28:34;100220.25;;;22.03;100.00
19845;BME280;10083;51.038;7.012;2022-08-01T05:31:04;100220.44;;;21.89;100.00
19845;BME280;10083;51.038;7.012;2022-08-01T05:33:39;100249.91;;;22.07;100.00
19845;BME280;10083;51.038;7.012;2022-08-01T05:36:06;100221.13;;;22.03;100.00
19845;BME280;10083;51.038;7.012;2022-08-01T05:38:36;100153.31;;;21.99;100.00
19845;BME280;10083;51.038;7.012;2022-08-01T05:41:04;100228.25;;;21.82;100.00
19845;BME280;10083;51.038;7.012;2022-08-01T05:43:31;100248.06;;;21.84;100.00
19845;BME280;10083;51.038;7.012;2022-08-01T05:45:58;100262.75;;;21.94;100.00
19845;BME280;10083;51.038;7.012;2022-08-01T05:48:30;100226.66;;;21.91;100.00
19845;BME280;10083;51.038;7.012;2022-08-01T05:50:57;100183.19;;;22.12;100.00
19845;BME280;10083;51.038;7.012;2022-08-01T05:53:26;100087.59;;;22.13;100.00
19845;BME280;10083;51.038;7.012;2022-08-01T05:55:53;100007.38;;;22.16;100.00
19845;BME280;10083;51.038;7.012;2022-08-01T05:58:35;99944.78;;;22.14;100.00
19845;BME280;10083;51.038;7.012;2022-08-01T06:01:02;99968.41;;;22.25;100.00
19845;BME280;10083;51.038;7.012;2022-08-01T06:03:33;99953.50;;;22.29;100.00
19845;BME280;10083;51.038;7.012;2022-08-01T06:06:00;99870.25;;;22.34;100.00
19845;BME280;10083;51.038;7.012;2022-08-01T06:08:42;99723.78;;;22.35;100.00
19845;BME280;10083;51.038;7.012;2022-08-01T06:11:09;99703.72;;;22.45;100.00
19845;BME280;10083;51.038;7.012;2022-08-01T06:13:39;99623.59;;;22.56;100.00
19845;BME280;10083;51.038;7.012;2022-08-01T06:16:06;99568.03;;;22.57;100.00
19845;BME280;10083;51.038;7.012;2022-08-01T06:18:41;99602.66;;;22.66;100.00
19845;BME280;10083;51.038;7.012;2022-08-01T06:21:08;99504.56;;;22.74;100.00
19845;BME280;10083;51.038;7.012;2022-08-01T06:23:35;99336.41;;;22.81;100.00
19845;BME280;10083;51.038;7.012;2022-08-01T06:26:11;99242.03;;;22.79;100.00
19845;BME280;10083;51.038;7.012;2022-08-01T06:28:39;99219.22;;;22.97;100.00
19845;BME280;10083;51.038;7.012;2022-08-01T06:31:11;99038.81;;;22.99;100.00
19845;BME280;10083;51.038;7.012;2022-08-01T06:33:42;98995.41;;;22.70;100.00
19845;BME280;10083;51.038;7.012;2022-08-01T06:36:33;99076.66;;;22.76;100.00
19845;BME280;10083;51.038;7.012;2022-08-01T06:39:00;99049.41;;;22.67;100.00
19845;BME280;10083;51.038;7.012;2022-08-01T06:41:27;98896.91;;;22.89;100.00
19845;BME280;10083;51.038;7.012;2022-08-01T06:43:55;98791.72;;;23.11;100.00
19845;BME280;10083;51.038;7.012;2022-08-01T06:46:30;98650.44;;;23.29;100.00
19845;BME280;10083;51.038;7.012;2022-08-01T06:48:57;98563.22;;;23.52;100.00
19845;BME280;10083;51.038;7.012;2022-08-01T06:51:26;98313.31;;;23.55;100.00
19845;BME280;10083;51.038;7.012;2022-08-01T06:53:55;98289.88;;;23.60;100.00
19845;BME280;10083;51.038;7.012;2022-08-01T06:56:23;98189.84;;;23.51;100.00
19845;BME280;10083;51.038;7.012;2022-08-01T06:58:52;98092.03;;;23.47;100.00
19845;BME280;10083;51.038;7.012;2022-08-01T07:01:26;98096.84;;;23.45;100.00
19845;BME280;10083;51.038;7.012;2022-08-01T07:03:55;98121.38;;;23.53;100.00
19845;BME280;10083;51.038;7.012;2022-08-01T07:06:26;98080.59;;;23.43;100.00
19845;BME280;10083;51.038;7.012;2022-08-01T07:08:53;98020.06;;;23.54;100.00
19845;BME280;10083;51.038;7.012;2022-08-01T07:11:21;98041.47;;;23.42;100.00
19845;BME280;10083;51.038;7.012;2022-08-01T07:13:50;98061.13;;;23.46;100.00
19845;BME280;10083;51.038;7.012;2022-08-01T07:16:18;98047.03;;;23.57;100.00
19845;BME280;10083;51.038;7.012;2022-08-01T07:18:47;97925.56;;;23.60;100.00
19845;BME280;10083;51.038;7.012;2022-08-01T07:21:14;97894.63;;;23.59;100.00
19845;BME280;10083;51.038;7.012;2022-08-01T07:23:43;97878.34;;;23.51;100.00
19845;BME280;10083;51.038;7.012;2022-08-01T07:26:10;97933.75;;;23.45;100.00
19845;BME280;10083;51.038;7.012;2022-08-01T07:28:40;97924.41;;;23.54;100.00
19845;BME280;10083;51.038;7.012;2022-08-01T07:31:08;97887.63;;;23.42;100.00
19845;BME280;10083;51.038;7.012;2022-08-01T07:33:49;97897.38;;;23.59;100.00
19845;BME280;10083;51.038;7.012;2022-08-01T07:36:16;97880.47;;;23.41;100.00
19845;BME280;10083;51.038;7.012;2022-08-01T07:38:46;97900.19;;;23.51;100.00
19845;BME280;10083;51.038;7.012;2022-08-01T07:41:14;97892.69;;;23.53;100.00
19845;BME280;10083;51.038;7.012;2022-08-01T07:43:44;97886.63;;;23.72;100.00
19845;BME280;10083;51.038;7.012;2022-08-01T07:46:11;97921.13;;;23.88;100.00
19845;BME280;10083;51.038;7.012;2022-08-01T07:48:38;97881.53;;;23.69;100.00
19845;BME280;10083;51.038;7.012;2022-08-01T07:51:06;97912.63;;;23.68;100.00
19845;BME280;10083;51.038;7.012;2022-08-01T07:53:41;97863.34;;;23.76;100.00
19845;BME280;10083;51.038;7.012;2022-08-01T07:56:08;97839.41;;;24.14;100.00
19845;BME280;10083;51.038;7.012;2022-08-01T07:58:36;97821.06;;;23.94;100.00
19845;BME280;10083;51.038;7.012;2022-08-01T08:01:03;97828.56;;;24.06;100.00
19845;BME280;10083;51.038;7.012;2022-08-01T08:03:32;97856.25;;;23.97;100.00
19845;BME280;10083;51.038;7.012;2022-08-01T08:05:59;97863.31;;;23.91;100.00
19845;BME280;10083;51.038;7.012;2022-08-01T08:08:29;97866.56;;;23.65;100.00
19845;BME280;10083;51.038;7.012;2022-08-01T08:10:56;97871.56;;;23.62;100.00
19845;BME280;10083;51.038;7.012;2022-08-01T08:13:23;97869.00;;;23.60;100.00
19845;BME280;10083;51.038;7.012;2022-08-01T08:15:50;97855.75;;;23.93;100.00
19845;BME280;10083;51.038;7.012;2022-08-01T08:18:17;97852.34;;;24.42;100.00
19845;BME280;10083;51.038;7.012;2022-08-01T08:20:44;97848.84;;;24.90;100.00
19845;BME280;10083;51.038;7.012;2022-08-01T08:23:11;97931.94;;;24.83;100.00
19845;BME280;10083;51.038;7.012;2022-08-01T08:25:57;97919.75;;;25.06;100.00
19845;BME280;10083;51.038;7.012;2022-08-01T08:28:24;98035.91;;;24.91;100.00
19845;BME280;10083;51.038;7.012;2022-08-01T08:30:51;98107.19;;;24.83;100.00
19845;BME280;10083;51.038;7.012;2022-08-01T08:33:18;98108.28;;;25.17;100.00
19845;BME280;10083;51.038;7.012;2022-08-01T08:35:45;98146.66;;;25.17;100.00
19845;BME280;10083;51.038;7.012;2022-08-01T08:38:16;98205.72;;;24.91;100.00
19845;BME280;10083;51.038;7.012;2022-08-01T08:40:44;98216.28;;;24.94;100.00
19845;BME280;10083;51.038;7.012;2022-08-01T08:43:20;98225.50;;;24.63;100.00
19845;BME280;10083;51.038;7.012;2022-08-01T08:45:48;98191.91;;;24.99;100.00
19845;BME280;10083;51.038;7.012;2022-08-01T08:48:19;98229.50;;;24.90;100.00
19845;BME280;10083;51.038;7.012;2022-08-01T08:50:48;98240.09;;;25.08;100.00
19845;BME280;10083;51.038;7.012;2022-08-01T08:53:15;98230.06;;;25.15;100.00
19845;BME280;10083;51.038;7.012;2022-08-01T08:55:43;98345.31;;;24.99;100.00
19845;BME280;10083;51.038;7.012;2022-08-01T08:58:14;98375.03;;;24.64;100.00
19845;BME280;10083;51.038;7.012;2022-08-01T09:00:46;98299.97;;;24.59;100.00
19845;BME280;10083;51.038;7.012;2022-08-01T09:03:14;98296.97;;;24.68;100.00
19845;BME280;10083;51.038;7.012;2022-08-01T09:05:41;98294.13;;;24.99;100.00
19845;BME280;10083;51.038;7.012;2022-08-01T09:08:16;98270.34;;;25.14;100.00
19845;BME280;10083;51.038;7.012;2022-08-01T09:10:45;98389.25;;;25.20;100.00
19845;BME280;10083;51.038;7.012;2022-08-01T09:13:14;98357.91;;;25.37;100.00
19845;BME280;10083;51.038;7.012;2022-08-01T09:15:47;98363.28;;;25.45;100.00
19845;BME280;10083;51.038;7.012;2022-08-01T09:18:30;98410.94;;;25.44;100.00
19845;BME280;10083;51.038;7.012;2022-08-01T09:21:17;98576.88;;;24.87;100.00
19845;BME280;10083;51.038;7.012;2022-08-01T09:23:46;98527.03;;;24.91;100.00
19845;BME280;10083;51.038;7.012;2022-08-01T09:26:28;98463.56;;;24.80;100.00
19845;BME280;10083;51.038;7.012;2022-08-01T09:28:56;98503.22;;;25.14;100.00
19845;BME280;10083;51.038;7.012;2022-08-01T09:31:27;98610.75;;;25.16;100.00
19845;BME280;10083;51.038;7.012;2022-08-01T09:33:57;98690.84;;;24.96;100.00
19845;BME280;10083;51.038;7.012;2022-08-01T09:36:50;98680.72;;;24.96;100.00
19845;BME280;10083;51.038;7.012;2022-08-01T09:39:23;98682.41;;;25.05;100.00
19845;BME280;10083;51.038;7.012;2022-08-01T09:41:51;98739.69;;;25.15;100.00
19845;BME280;10083;51.038;7.012;2022-08-01T09:44:43;98834.25;;;25.19;100.00
19845;BME280;10083;51.038;7.012;2022-08-01T09:47:14;98884.59;;;25.26;100.00
19845;BME280;10083;51.038;7.012;2022-08-01T09:49:43;98829.66;;;25.50;100.00
19845;BME280;10083;51.038;7.012;2022-08-01T09:52:13;98882.72;;;25.74;100.00
19845;BME280;10083;51.038;7.012;2022-08-01T09:54:43;98820.25;;;26.15;100.00
19845;BME280;10083;51.038;7.012;2022-08-01T09:57:13;98873.16;;;26.31;100.00
19845;BME280;10083;51.038;7.012;2022-08-01T09:59:49;98941.75;;;26.39;100.00
19845;BME280;10083;51.038;7.012;2022-08-01T10:05:10;98994.56;;;26.02;100.00
19845;BME280;10083;51.038;7.012;2022-08-01T10:07:57;99067.28;;;26.23;100.00
19845;BME280;10083;51.038;7.012;2022-08-01T10:10:25;99044.47;;;26.14;100.00
19845;BME280;10083;51.038;7.012;2022-08-01T10:12:52;99084.63;;;25.99;100.00
19845;BME280;10083;51.038;7.012;2022-08-01T10:15:25;99028.25;;;25.88;100.00
19845;BME280;10083;51.038;7.012;2022-08-01T10:17:57;99018.28;;;25.95;100.00
19845;BME280;10083;51.038;7.012;2022-08-01T10:20:33;98947.06;;;26.02;100.00
19845;BME280;10083;51.038;7.012;2022-08-01T10:23:03;98990.25;;;26.08;100.00
19845;BME280;10083;51.038;7.012;2022-08-01T10:25:35;99049.63;;;26.09;100.00
19845;BME280;10083;51.038;7.012;2022-08-01T10:28:12;99061.66;;;26.47;100.00
19845;BME280;10083;51.038;7.012;2022-08-01T10:30:43;99028.56;;;27.02;100.00
19845;BME280;10083;51.038;7.012;2022-08-01T10:33:29;99159.69;;;27.24;100.00
19845;BME280;10083;51.038;7.012;2022-08-01T10:35:57;99357.34;;;27.19;100.00
19845;BME280;10083;51.038;7.012;2022-08-01T10:38:27;99316.66;;;27.45;100.00
19845;BME280;10083;51.038;7.012;2022-08-01T10:40:56;99427.41;;;27.56;100.00
19845;BME280;10083;51.038;7.012;2022-08-01T10:43:25;99581.22;;;28.14;100.00
19845;BME280;10083;51.038;7.012;2022-08-01T10:45:52;99776.03;;;27.37;100.00
19845;BME280;10083;51.038;7.012;2022-08-01T10:48:31;99778.97;;;28.26;100.00
19845;BME280;10083;51.038;7.012;2022-08-01T10:51:04;99860.72;;;28.02;100.00
19845;BME280;10083;51.038;7.012;2022-08-01T10:53:31;99775.09;;;28.92;100.00
19845;BME280;10083;51.038;7.012;2022-08-01T10:56:00;99892.03;;;29.38;100.00
19845;BME280;10083;51.038;7.012;2022-08-01T10:58:34;99975.19;;;29.90;100.00
19845;BME280;10083;51.038;7.012;2022-08-01T11:01:17;100012.03;;;30.14;100.00
19845;BME280;10083;51.038;7.012;2022-08-01T11:04:12;100087.44;;;29.67;100.00
19845;BME280;10083;51.038;7.012;2022-08-01T11:06:49;100265.56;;;28.79;100.00
19845;BME280;10083;51.038;7.012;2022-08-01T11:09:30;100198.47;;;28.37;100.00
19845;BME280;10083;51.038;7.012;2022-08-01T11:12:09;100126.47;;;28.73;100.00
19845;BME280;10083;51.038;7.012;2022-08-01T11:18:03;100128.78;;;30.07;100.00
19845;BME280;10083;51.038;7.012;2022-08-01T11:20:35;100266.91;;;29.67;100.00
19845;BME280;10083;51.038;7.012;2022-08-01T11:23:17;100213.91;;;28.63;100.00
19845;BME280;10083;51.038;7.012;2022-08-01T11:26:09;100196.56;;;28.11;100.00
19845;BME280;10083;51.038;7.012;2022-08-01T11:28:37;100087.97;;;27.19;100.00
19845;BME280;10083;51.038;7.012;2022-08-01T11:31:36;100104.34;;;26.75;100.00
19845;BME280;10083;51.038;7.012;2022-08-01T11:34:03;100169.41;;;27.02;100.00
19845;BME280;10083;51.038;7.012;2022-08-01T11:36:33;100155.50;;;27.39;100.00
19845;BME280;10083;51.038;7.012;2022-08-01T11:39:14;100131.19;;;28.13;100.00
19845;BME280;10083;51.038;7.012;2022-08-01T11:41:53;100223.97;;;29.97;100.00
19845;BME280;10083;51.038;7.012;2022-08-01T11:44:22;100417.44;;;30.45;100.00
19845;BME280;10083;51.038;7.012;2022-08-01T11:47:04;100450.69;;;30.20;100.00
19845;BME280;10083;51.038;7.012;2022-08-01T11:49:58;100461.13;;;31.31;100.00
19845;BME280;10083;51.038;7.012;2022-08-01T11:52:29;100723.63;;;31.52;100.00
19845;BME280;10083;51.038;7.012;2022-08-01T11:55:14;100732.84;;;31.68;100.00
19845;BME280;10083;51.038;7.012;2022-08-01T11:57:41;100767.66;;;31.95;100.00
19845;BME280;10083;51.038;7.012;2022-08-01T12:00:12;100829.66;;;30.60;100.00
19845;BME280;10083;51.038;7.012;2022-08-01T12:02:39;100799.06;;;29.30;100.00
19845;BME280;10083;51.038;7.012;2022-08-01T12:05:09;100738.91;;;28.88;100.00
19845;BME280;10083;51.038;7.012;2022-08-01T12:07:39;100684.53;;;28.44;100.00
19845;BME280;10083;51.038;7.012;2022-08-01T12:10:14;100679.22;;;28.32;100.00
19845;BME280;10083;51.038;7.012;2022-08-01T12:12:43;100721.72;;;29.57;100.00
19845;BME280;10083;51.038;7.012;2022-08-01T12:15:24;100780.31;;;30.04;100.00
19845;BME280;10083;51.038;7.012;2022-08-01T12:17:56;100789.19;;;31.27;100.00
19845;BME280;10083;51.038;7.012;2022-08-01T12:20:24;100824.16;;;31.28;100.00
19845;BME280;10083;51.038;7.012;2022-08-01T12:22:54;100902.91;;;31.75;100.00
19845;BME280;10083;51.038;7.012;2022-08-01T12:25:29;100907.63;;;32.07;100.00
19845;BME280;10083;51.038;7.012;2022-08-01T12:28:00;100951.41;;;32.54;100.00
19845;BME280;10083;51.038;7.012;2022-08-01T12:30:28;101001.47;;;32.28;100.00
19845;BME280;10083;51.038;7.012;2022-08-01T12:32:57;101030.00;;;31.70;100.00
19845;BME280;10083;51.038;7.012;2022-08-01T12:35:27;101045.78;;;32.78;100.00
19845;BME280;10083;51.038;7.012;2022-08-01T12:37:58;101062.56;;;31.76;100.00
19845;BME280;10083;51.038;7.012;2022-08-01T12:40:42;101044.38;;;31.48;100.00
19845;BME280;10083;51.038;7.012;2022-08-01T12:43:09;101045.94;;;32.77;100.00
19845;BME280;10083;51.038;7.012;2022-08-01T12:45:56;101064.72;;;31.91;100.00
19845;BME280;10083;51.038;7.012;2022-08-01T12:48:25;101050.50;;;30.73;100.00
19845;BME280;10083;51.038;7.012;2022-08-01T12:50:53;101047.75;;;31.34;100.00
19845;BME280;10083;51.038;7.012;2022-08-01T12:53:41;101031.75;;;32.13;100.00
19845;BME280;10083;51.038;7.012;2022-08-01T12:56:09;101052.44;;;31.59;100.00
19845;BME280;10083;51.038;7.012;2022-08-01T12:58:38;101050.06;;;30.15;100.00
19845;BME280;10083;51.038;7.012;2022-08-01T13:01:06;101032.47;;;29.79;100.00
19845;BME280;10083;51.038;7.012;2022-08-01T13:03:35;101015.16;;;28.93;100.00
19845;BME280;10083;51.038;7.012;2022-08-01T13:06:10;101014.59;;;29.73;100.00
19845;BME280;10083;51.038;7.012;2022-08-01T13:09:15;101022.16;;;30.08;100.00
19845;BME280;10083;51.038;7.012;2022-08-01T13:11:52;101034.75;;;29.93;100.00
19845;BME280;10083;51.038;7.012;2022-08-01T13:14:28;101020.34;;;29.62;100.00
19845;BME280;10083;51.038;7.012;2022-08-01T13:17:04;101036.47;;;29.67;100.00
19845;BME280;10083;51.038;7.012;2022-08-01T13:19:44;101031.47;;;29.33;100.00
19845;BME280;10083;51.038;7.012;2022-08-01T13:22:15;101034.41;;;29.12;100.00
19845;BME280;10083;51.038;7.012;2022-08-01T13:24:44;101031.69;;;28.93;100.00
19845;BME280;10083;51.038;7.012;2022-08-01T13:27:20;101027.19;;;28.73;100.00
19845;BME280;10083;51.038;7.012;2022-08-01T13:29:49;101016.75;;;28.76;100.00
19845;BME280;10083;51.038;7.012;2022-08-01T13:32:24;101016.41;;;28.99;100.00
19845;BME280;10083;51.038;7.012;2022-08-01T13:35:00;101008.94;;;29.38;100.00